sensor_id;sensor_type;location;lat;lon;timestamp;pressure;altitude;pressure_sealevel;temperature;humidity
71996;BME280;59862;47.732;7.346;2022-09-03T00:00:40;97660.98;;;15.88;85.92
71996;BME280;59862;47.732;7.346;2022-09-03T00:03:17;97659.13;;;15.71;86.60
71996;BME280;59862;47.732;7.346;2022-09-03T00:06:08;97647.45;;;15.72;87.03
71996;BME280;59862;47.732;7.346;2022-09-03T00:11:27;97658.74;;;15.73;86.94
71996;BME280;59862;47.732;7.346;2022-09-03T00:14:03;97649.21;;;15.67;87.06
71996;BME280;59862;47.732;7.346;2022-09-03T00:16:42;97645.25;;;15.68;87.29
71996;BME280;59862;47.732;7.346;2022-09-03T00:19:03;97634.55;;;15.66;87.43
71996;BME280;59862;47.732;7.346;2022-09-03T00:21:39;97634.55;;;15.66;87.26
71996;BME280;59862;47.732;7.346;2022-09-03T00:24:10;97636.42;;;15.55;87.37
71996;BME280;59862;47.732;7.346;2022-09-03T00:26:39;97623.75;;;15.54;87.51
71996;BME280;59862;47.732;7.346;2022-09-03T00:29:14;97617.11;;;15.62;87.39
71996;BME280;59862;47.732;7.346;2022-09-03T00:31:52;97618.13;;;15.67;87.11
71996;BME280;59862;47.732;7.346;2022-09-03T00:34:29;97615.37;;;15.71;86.97
71996;BME280;59862;47.732;7.346;2022-09-03T00:36:58;97629.65;;;15.76;86.88
71996;BME280;59862;47.732;7.346;2022-09-03T00:39:26;97616.19;;;15.78;86.63
71996;BME280;59862;47.732;7.346;2022-09-03T00:42:17;97617.17;;;15.76;85.68
71996;BME280;59862;47.732;7.346;2022-09-03T00:44:55;97615.78;;;15.76;85.71
71996;BME280;59862;47.732;7.346;2022-09-03T00:55:48;97608.92;;;15.98;86.03
71996;BME280;59862;47.732;7.346;2022-09-03T01:00:55;97619.45;;;16.09;86.12
71996;BME280;59862;47.732;7.346;2022-09-03T01:03:36;97623.81;;;16.06;85.98
71996;BME280;59862;47.732;7.346;2022-09-03T01:06:17;97625.80;;;16.09;85.99
71996;BME280;59862;47.732;7.346;2022-09-03T01:08:59;97631.91;;;15.98;85.77
71996;BME280;59862;47.732;7.346;2022-09-03T01:11:44;97647.30;;;15.81;86.06
71996;BME280;59862;47.732;7.346;2022-09-03T01:14:33;97649.80;;;15.66;86.51
71996;BME280;59862;47.732;7.346;2022-09-03T01:17:03;97652.35;;;15.62;86.58
71996;BME280;59862;47.732;7.346;2022-09-03T01:22:38;97704.08;;;15.71;85.93
71996;BME280;59862;47.732;7.346;2022-09-03T01:28:28;97674.53;;;15.62;85.28
71996;BME280;59862;47.732;7.346;2022-09-03T01:31:04;97662.59;;;15.58;85.25
71996;BME280;59862;47.732;7.346;2022-09-03T01:33:46;97668.22;;;15.68;85.55
71996;BME280;59862;47.732;7.346;2022-09-03T01:39:03;97658.12;;;15.66;85.19
71996;BME280;59862;47.732;7.346;2022-09-03T01:44:57;97670.66;;;15.80;85.76
71996;BME280;59862;47.732;7.346;2022-09-03T02:00:54;97674.38;;;15.71;86.17
71996;BME280;59862;47.732;7.346;2022-09-03T02:03:16;97670.80;;;15.67;86.35
71996;BME280;59862;47.732;7.346;2022-09-03T02:05:44;97664.55;;;15.57;87.27
71996;BME280;59862;47.732;7.346;2022-09-03T02:08:13;97663.98;;;15.58;87.82
71996;BME280;59862;47.732;7.346;2022-09-03T02:10:48;97668.02;;;15.67;88.00
71996;BME280;59862;47.732;7.346;2022-09-03T02:13:23;97664.08;;;15.72;88.01
71996;BME280;59862;47.732;7.346;2022-09-03T02:15:49;97656.00;;;15.80;87.93
71996;BME280;59862;47.732;7.346;2022-09-03T02:18:26;97652.83;;;15.78;88.17
71996;BME280;59862;47.732;7.346;2022-09-03T02:20:55;97652.84;;;15.81;88.28
71996;BME280;59862;47.732;7.346;2022-09-03T02:23:24;97658.99;;;15.84;88.15
71996;BME280;59862;47.732;7.346;2022-09-03T02:25:57;97656.42;;;15.85;88.47
71996;BME280;59862;47.732;7.346;2022-09-03T02:28:29;97659.60;;;15.88;88.46
71996;BME280;59862;47.732;7.346;2022-09-03T02:30:58;97664.94;;;15.87;88.46
71996;BME280;59862;47.732;7.346;2022-09-03T02:33:26;97662.95;;;15.83;88.57
71996;BME280;59862;47.732;7.346;2022-09-03T02:35:54;97656.42;;;15.85;88.75
71996;BME280;59862;47.732;7.346;2022-09-03T02:38:24;97660.97;;;15.84;88.61
71996;BME280;59862;47.732;7.346;2022-09-03T02:40:53;97650.27;;;15.82;88.34
71996;BME280;59862;47.732;7.346;2022-09-03T02:43:41;97660.78;;;15.87;88.44
71996;BME280;59862;47.732;7.346;2022-09-03T02:46:12;97660.98;;;15.88;88.54
71996;BME280;59862;47.732;7.346;2022-09-03T02:48:40;97655.23;;;15.87;88.68
71996;BME280;59862;47.732;7.346;2022-09-03T02:51:07;97645.55;;;15.90;88.59
71996;BME280;59862;47.732;7.346;2022-09-03T02:53:35;97646.95;;;15.94;88.47
71996;BME280;59862;47.732;7.346;2022-09-03T02:56:02;97660.41;;;15.92;88.41
71996;BME280;59862;47.732;7.346;2022-09-03T02:58:30;97656.83;;;15.88;88.44
71996;BME280;59862;47.732;7.346;2022-09-03T03:00:57;97663.18;;;15.92;88.18
71996;BME280;59862;47.732;7.346;2022-09-03T03:03:25;97664.37;;;15.91;88.27
71996;BME280;59862;47.732;7.346;2022-09-03T03:05:55;97667.13;;;15.87;88.34
71996;BME280;59862;47.732;7.346;2022-09-03T03:08:25;97669.09;;;15.83;88.50
71996;BME280;59862;47.732;7.346;2022-09-03T03:10:56;97677.59;;;15.80;88.43
71996;BME280;59862;47.732;7.346;2022-09-03T03:13:27;97677.61;;;15.84;88.14
71996;BME280;59862;47.732;7.346;2022-09-03T03:15:59;97677.42;;;15.87;87.83
71996;BME280;59862;47.732;7.346;2022-09-03T03:18:27;97674.98;;;15.74;87.98
71996;BME280;59862;47.732;7.346;2022-09-03T03:20:55;97665.52;;;15.82;88.21
71996;BME280;59862;47.732;7.346;2022-09-03T03:23:23;97665.12;;;15.80;88.38
71996;BME280;59862;47.732;7.346;2022-09-03T03:25:50;97672.99;;;15.71;88.63
71996;BME280;59862;47.732;7.346;2022-09-03T03:28:18;97674.21;;;15.77;88.69
71996;BME280;59862;47.732;7.346;2022-09-03T03:30:46;97672.83;;;15.77;88.76
71996;BME280;59862;47.732;7.346;2022-09-03T03:33:14;97686.25;;;15.68;88.88
71996;BME280;59862;47.732;7.346;2022-09-03T03:35:41;97686.41;;;15.62;88.53
71996;BME280;59862;47.732;7.346;2022-09-03T03:38:09;97676.45;;;15.58;88.78
71996;BME280;59862;47.732;7.346;2022-09-03T03:40:38;97673.09;;;15.58;88.61
71996;BME280;59862;47.732;7.346;2022-09-03T03:43:06;97672.66;;;15.56;88.54
71996;BME280;59862;47.732;7.346;2022-09-03T03:45:33;97672.66;;;15.56;88.69
71996;BME280;59862;47.732;7.346;2022-09-03T03:48:01;97673.50;;;15.60;88.69
71996;BME280;59862;47.732;7.346;2022-09-03T03:50:28;97673.81;;;15.51;88.85
71996;BME280;59862;47.732;7.346;2022-09-03T03:53:00;97679.75;;;15.50;89.15
71996;BME280;59862;47.732;7.346;2022-09-03T03:55:28;97683.70;;;15.49;89.23
71996;BME280;59862;47.732;7.346;2022-09-03T03:57:58;97679.55;;;15.49;89.33
71996;BME280;59862;47.732;7.346;2022-09-03T04:00:25;97675.02;;;15.54;89.42
71996;BME280;59862;47.732;7.346;2022-09-03T04:02:52;97671.84;;;15.52;89.03
71996;BME280;59862;47.732;7.346;2022-09-03T04:05:20;97674.02;;;15.52;89.11
71996;BME280;59862;47.732;7.346;2022-09-03T04:07:47;97666.31;;;15.55;89.04
71996;BME280;59862;47.732;7.346;2022-09-03T04:10:15;97666.16;;;15.58;88.99
71996;BME280;59862;47.732;7.346;2022-09-03T04:12:42;97662.00;;;15.58;89.13
71996;BME280;59862;47.732;7.346;2022-09-03T04:15:10;97658.20;;;15.57;89.04
71996;BME280;59862;47.732;7.346;2022-09-03T04:17:38;97660.57;;;15.54;89.15
71996;BME280;59862;47.732;7.346;2022-09-03T04:20:06;97665.93;;;15.57;89.27
71996;BME280;59862;47.732;7.346;2022-09-03T04:22:33;97660.82;;;15.59;89.15
71996;BME280;59862;47.732;7.346;2022-09-03T04:25:01;97665.12;;;15.53;88.79
71996;BME280;59862;47.732;7.346;2022-09-03T04:27:28;97657.53;;;15.43;88.73
71996;BME280;59862;47.732;7.346;2022-09-03T04:29:56;97664.69;;;15.47;88.87
71996;BME280;59862;47.732;7.346;2022-09-03T04:32:24;97652.25;;;15.54;89.07
71996;BME280;59862;47.732;7.346;2022-09-03T04:35:09;97655.88;;;15.59;88.73
71996;BME280;59862;47.732;7.346;2022-09-03T04:37:36;97662.85;;;15.62;88.66
71996;BME280;59862;47.732;7.346;2022-09-03T04:40:05;97657.46;;;15.60;88.43
71996;BME280;59862;47.732;7.346;2022-09-03T04:42:32;97649.69;;;15.55;88.18
71996;BME280;59862;47.732;7.346;2022-09-03T04:45:00;97644.68;;;15.44;88.03
71996;BME280;59862;47.732;7.346;2022-09-03T04:47:27;97649.02;;;15.42;88.31
71996;BME280;59862;47.732;7.346;2022-09-03T04:49:55;97645.06;;;15.43;88.49
71996;BME280;59862;47.732;7.346;2022-09-03T04:52:22;97649.42;;;15.44;88.53
71996;BME280;59862;47.732;7.346;2022-09-03T04:54:50;97653.58;;;15.44;88.68
71996;BME280;59862;47.732;7.346;2022-09-03T04:57:17;97650.06;;;15.50;88.94
71996;BME280;59862;47.732;7.346;2022-09-03T04:59:45;97653.44;;;15.53;88.41
71996;BME280;59862;47.732;7.346;2022-09-03T05:02:12;97652.44;;;15.52;88.31
71996;BME280;59862;47.732;7.346;2022-09-03T05:04:43;97647.91;;;15.57;88.52
71996;BME280;59862;47.732;7.346;2022-09-03T05:07:12;97654.48;;;15.59;88.26
71996;BME280;59862;47.732;7.346;2022-09-03T05:09:39;97659.09;;;15.64;88.44
71996;BME280;59862;47.732;7.346;2022-09-03T05:12:07;97653.55;;;15.64;88.08
71996;BME280;59862;47.732;7.346;2022-09-03T05:14:35;97651.98;;;15.67;88.03
71996;BME280;59862;47.732;7.346;2022-09-03T05:17:03;97654.55;;;15.66;87.71
71996;BME280;59862;47.732;7.346;2022-09-03T05:19:30;97654.34;;;15.65;88.04
71996;BME280;59862;47.732;7.346;2022-09-03T05:21:58;97658.89;;;15.63;88.04
71996;BME280;59862;47.732;7.346;2022-09-03T05:24:25;97668.20;;;15.65;87.97
71996;BME280;59862;47.732;7.346;2022-09-03T05:26:52;97665.05;;;15.66;87.86
71996;BME280;59862;47.732;7.346;2022-09-03T05:29:20;97663.44;;;15.62;88.07
71996;BME280;59862;47.732;7.346;2022-09-03T05:31:49;97667.21;;;15.63;88.13
71996;BME280;59862;47.732;7.346;2022-09-03T05:34:16;97667.62;;;15.65;88.03
71996;BME280;59862;47.732;7.346;2022-09-03T05:36:44;97666.25;;;15.69;87.69
71996;BME280;59862;47.732;7.346;2022-09-03T05:39:13;97671.61;;;15.71;87.62
71996;BME280;59862;47.732;7.346;2022-09-03T05:41:40;97659.37;;;15.79;87.63
71996;BME280;59862;47.732;7.346;2022-09-03T05:44:08;97655.03;;;15.85;87.63
71996;BME280;59862;47.732;7.346;2022-09-03T05:46:35;97656.22;;;15.84;87.31
71996;BME280;59862;47.732;7.346;2022-09-03T05:49:05;97663.40;;;15.96;87.34
71996;BME280;59862;47.732;7.346;2022-09-03T05:51:35;97662.42;;;16.02;86.99
71996;BME280;59862;47.732;7.346;2022-09-03T05:54:05;97664.83;;;16.10;86.66
71996;BME280;59862;47.732;7.346;2022-09-03T05:56:35;97657.89;;;16.07;86.29
71996;BME280;59862;47.732;7.346;2022-09-03T05:59:06;97660.83;;;15.97;86.14
71996;BME280;59862;47.732;7.346;2022-09-03T06:01:41;97661.04;;;16.02;85.96
71996;BME280;59862;47.732;7.346;2022-09-03T06:04:07;97661.47;;;16.11;85.95
71996;BME280;59862;47.732;7.346;2022-09-03T06:06:37;97648.39;;;16.11;85.57
71996;BME280;59862;47.732;7.346;2022-09-03T06:09:07;97648.20;;;16.14;85.33
71996;BME280;59862;47.732;7.346;2022-09-03T06:11:37;97653.56;;;16.20;85.27
71996;BME280;59862;47.732;7.346;2022-09-03T06:14:07;97658.73;;;16.25;85.23
71996;BME280;59862;47.732;7.346;2022-09-03T06:16:42;97666.52;;;16.33;84.83
71996;BME280;59862;47.732;7.346;2022-09-03T06:19:07;97663.16;;;16.37;84.27
71996;BME280;59862;47.732;7.346;2022-09-03T06:21:37;97668.52;;;16.43;84.13
71996;BME280;59862;47.732;7.346;2022-09-03T06:24:10;97668.92;;;16.45;83.56
71996;BME280;59862;47.732;7.346;2022-09-03T06:26:38;97668.14;;;16.52;84.11
71996;BME280;59862;47.732;7.346;2022-09-03T06:29:06;97664.23;;;16.70;84.50
71996;BME280;59862;47.732;7.346;2022-09-03T06:31:33;97667.41;;;16.79;84.01
71996;BME280;59862;47.732;7.346;2022-09-03T06:34:01;97666.02;;;16.90;83.31
71996;BME280;59862;47.732;7.346;2022-09-03T06:36:28;97666.25;;;17.02;83.40
71996;BME280;59862;47.732;7.346;2022-09-03T06:38:56;97669.02;;;17.05;82.73
71996;BME280;59862;47.732;7.346;2022-09-03T06:41:27;97671.99;;;17.14;81.97
71996;BME280;59862;47.732;7.346;2022-09-03T06:44:01;97668.80;;;17.26;81.74
71996;BME280;59862;47.732;7.346;2022-09-03T06:46:36;97672.56;;;17.34;81.30
71996;BME280;59862;47.732;7.346;2022-09-03T06:49:05;97672.94;;;17.47;81.45
71996;BME280;59862;47.732;7.346;2022-09-03T06:51:33;97668.95;;;17.55;80.95
71996;BME280;59862;47.732;7.346;2022-09-03T06:54:03;97665.78;;;17.64;80.76
71996;BME280;59862;47.732;7.346;2022-09-03T06:56:33;97654.88;;;17.68;80.16
71996;BME280;59862;47.732;7.346;2022-09-03T06:59:04;97657.27;;;17.66;79.38
71996;BME280;59862;47.732;7.346;2022-09-03T07:01:33;97664.21;;;17.66;79.22
71996;BME280;59862;47.732;7.346;2022-09-03T07:04:03;97662.41;;;17.61;78.77
71996;BME280;59862;47.732;7.346;2022-09-03T07:06:37;97659.84;;;17.58;79.28
71996;BME280;59862;47.732;7.346;2022-09-03T07:09:06;97658.45;;;17.58;78.55
71996;BME280;59862;47.732;7.346;2022-09-03T07:11:34;97664.97;;;17.78;79.89
71996;BME280;59862;47.732;7.346;2022-09-03T07:14:04;97665.30;;;17.97;80.37
71996;BME280;59862;47.732;7.346;2022-09-03T07:16:35;97667.42;;;18.12;78.40
71996;BME280;59862;47.732;7.346;2022-09-03T07:19:04;97666.17;;;18.27;78.73
71996;BME280;59862;47.732;7.346;2022-09-03T07:21:34;97667.68;;;18.43;77.65
71996;BME280;59862;47.732;7.346;2022-09-03T07:24:07;97672.95;;;18.63;77.53
71996;BME280;59862;47.732;7.346;2022-09-03T07:26:38;97677.34;;;18.93;76.75
71996;BME280;59862;47.732;7.346;2022-09-03T07:29:07;97672.60;;;19.13;76.69
71996;BME280;59862;47.732;7.346;2022-09-03T07:31:37;97682.23;;;19.05;75.14
71996;BME280;59862;47.732;7.346;2022-09-03T07:34:07;97682.55;;;19.14;75.89
71996;BME280;59862;47.732;7.346;2022-09-03T07:36:41;97681.00;;;19.31;75.71
71996;BME280;59862;47.732;7.346;2022-09-03T07:39:10;97686.64;;;19.24;75.18
71996;BME280;59862;47.732;7.346;2022-09-03T07:41:38;97682.02;;;19.29;75.03
71996;BME280;59862;47.732;7.346;2022-09-03T07:44:08;97689.30;;;18.90;75.70
71996;BME280;59862;47.732;7.346;2022-09-03T07:46:36;97685.13;;;18.90;76.77
71996;BME280;59862;47.732;7.346;2022-09-03T07:49:06;97676.80;;;18.87;76.17
71996;BME280;59862;47.732;7.346;2022-09-03T07:51:37;97692.55;;;18.78;77.29
71996;BME280;59862;47.732;7.346;2022-09-03T07:54:07;97704.05;;;18.84;76.66
71996;BME280;59862;47.732;7.346;2022-09-03T07:56:37;97711.23;;;18.81;76.39
71996;BME280;59862;47.732;7.346;2022-09-03T07:59:06;97711.22;;;18.88;76.96
71996;BME280;59862;47.732;7.346;2022-09-03T08:01:35;97716.55;;;18.94;76.17
71996;BME280;59862;47.732;7.346;2022-09-03T08:04:03;97713.38;;;18.92;75.82
71996;BME280;59862;47.732;7.346;2022-09-03T08:06:32;97719.88;;;18.68;76.00
71996;BME280;59862;47.732;7.346;2022-09-03T08:09:06;97723.45;;;18.68;76.51
71996;BME280;59862;47.732;7.346;2022-09-03T08:11:36;97727.06;;;18.58;77.48
71996;BME280;59862;47.732;7.346;2022-09-03T08:14:06;97734.70;;;18.44;78.33
71996;BME280;59862;47.732;7.346;2022-09-03T08:16:40;97731.75;;;18.35;79.01
71996;BME280;59862;47.732;7.346;2022-09-03T08:19:05;97731.35;;;18.37;80.21
71996;BME280;59862;47.732;7.346;2022-09-03T08:21:32;97740.31;;;18.33;79.26
71996;BME280;59862;47.732;7.346;2022-09-03T08:24:00;97741.95;;;18.16;80.02
71996;BME280;59862;47.732;7.346;2022-09-03T08:26:32;97746.52;;;18.18;80.30
71996;BME280;59862;47.732;7.346;2022-09-03T08:29:01;97740.19;;;18.07;80.44
71996;BME280;59862;47.732;7.346;2022-09-03T08:31:30;97744.03;;;17.84;81.97
71996;BME280;59862;47.732;7.346;2022-09-03T08:34:00;97743.27;;;17.72;83.07
71996;BME280;59862;47.732;7.346;2022-09-03T08:36:34;97736.11;;;17.57;83.58
71996;BME280;59862;47.732;7.346;2022-09-03T08:39:04;97743.23;;;17.55;84.32
71996;BME280;59862;47.732;7.346;2022-09-03T08:44:27;97754.96;;;17.19;85.83
71996;BME280;59862;47.732;7.346;2022-09-03T08:49:44;97776.98;;;17.10;87.06
71996;BME280;59862;47.732;7.346;2022-09-03T08:55:06;97795.97;;;16.87;89.40
71996;BME280;59862;47.732;7.346;2022-09-03T08:57:31;97821.20;;;16.92;89.49
71996;BME280;59862;47.732;7.346;2022-09-03T08:59:59;97840.86;;;16.96;89.66
71996;BME280;59862;47.732;7.346;2022-09-03T09:02:34;97857.07;;;16.87;88.97
71996;BME280;59862;47.732;7.346;2022-09-03T09:05:12;97864.09;;;16.63;87.12
71996;BME280;59862;47.732;7.346;2022-09-03T09:08:01;97874.37;;;16.25;87.19
71996;BME280;59862;47.732;7.346;2022-09-03T09:10:44;97884.16;;;15.80;87.50
71996;BME280;59862;47.732;7.346;2022-09-03T09:13:18;97883.66;;;15.51;88.22
71996;BME280;59862;47.732;7.346;2022-09-03T09:15:53;97888.30;;;15.19;89.12
71996;BME280;59862;47.732;7.346;2022-09-03T09:21:11;97896.30;;;14.78;89.31
71996;BME280;59862;47.732;7.346;2022-09-03T09:23:45;97873.39;;;14.64;90.05
71996;BME280;59862;47.732;7.346;2022-09-03T09:26:18;97862.28;;;14.61;90.99
71996;BME280;59862;47.732;7.346;2022-09-03T09:28:58;97851.03;;;14.46;90.84
71996;BME280;59862;47.732;7.346;2022-09-03T09:31:27;97850.41;;;14.43;91.57
71996;BME280;59862;47.732;7.346;2022-09-03T09:34:03;97845.80;;;14.41;92.10
71996;BME280;59862;47.732;7.346;2022-09-03T09:36:53;97840.51;;;14.42;92.12
71996;BME280;59862;47.732;7.346;2022-09-03T09:39:10;97837.29;;;14.40;92.26
71996;BME280;59862;47.732;7.346;2022-09-03T09:41:39;97841.02;;;14.38;92.47
71996;BME280;59862;47.732;7.346;2022-09-03T09:44:07;97852.80;;;14.45;92.71
71996;BME280;59862;47.732;7.346;2022-09-03T09:46:38;97848.69;;;14.48;92.79
71996;BME280;59862;47.732;7.346;2022-09-03T09:49:28;97848.48;;;14.47;92.62
71996;BME280;59862;47.732;7.346;2022-09-03T09:52:11;97851.87;;;14.50;92.67
71996;BME280;59862;47.732;7.346;2022-09-03T09:54:40;97866.39;;;14.57;93.16
71996;BME280;59862;47.732;7.346;2022-09-03T09:57:21;97865.80;;;14.57;93.18
71996;BME280;59862;47.732;7.346;2022-09-03T09:59:44;97876.95;;;14.65;93.25
71996;BME280;59862;47.732;7.346;2022-09-03T10:02:25;97879.98;;;14.69;93.16
71996;BME280;59862;47.732;7.346;2022-09-03T10:05:00;97876.88;;;14.74;93.21
71996;BME280;59862;47.732;7.346;2022-09-03T10:07:28;97878.30;;;14.78;93.20
71996;BME280;59862;47.732;7.346;2022-09-03T10:09:59;97875.95;;;14.80;92.99
71996;BME280;59862;47.732;7.346;2022-09-03T10:12:40;97878.89;;;14.77;93.12
71996;BME280;59862;47.732;7.346;2022-09-03T10:20:48;97865.05;;;14.94;93.16
71996;BME280;59862;47.732;7.346;2022-09-03T10:23:14;97858.69;;;15.07;93.05
71996;BME280;59862;47.732;7.346;2022-09-03T10:25:59;97854.95;;;15.29;93.11
71996;BME280;59862;47.732;7.346;2022-09-03T10:28:29;97875.48;;;15.45;92.64
71996;BME280;59862;47.732;7.346;2022-09-03T10:31:10;97873.61;;;15.73;92.05
71996;BME280;59862;47.732;7.346;2022-09-03T10:33:52;97876.93;;;15.93;91.31
71996;BME280;59862;47.732;7.346;2022-09-03T10:36:45;97868.50;;;16.06;90.12
71996;BME280;59862;47.732;7.346;2022-09-03T10:39:22;97867.91;;;16.34;88.97
71996;BME280;59862;47.732;7.346;2022-09-03T10:42:12;97866.92;;;16.70;87.88
71996;BME280;59862;47.732;7.346;2022-09-03T10:44:53;97861.84;;;16.90;86.89
71996;BME280;59862;47.732;7.346;2022-09-03T10:50:30;97863.02;;;17.63;84.23
71996;BME280;59862;47.732;7.346;2022-09-03T10:53:28;97855.09;;;17.93;82.46
71996;BME280;59862;47.732;7.346;2022-09-03T10:56:14;97859.45;;;18.12;81.40
71996;BME280;59862;47.732;7.346;2022-09-03T10:59:03;97848.50;;;18.20;81.79
71996;BME280;59862;47.732;7.346;2022-09-03T11:04:45;97864.81;;;18.15;82.58
71996;BME280;59862;47.732;7.346;2022-09-03T11:07:11;97866.23;;;17.79;81.05
71996;BME280;59862;47.732;7.346;2022-09-03T11:09:45;97870.77;;;17.60;82.26
71996;BME280;59862;47.732;7.346;2022-09-03T11:12:30;97868.02;;;17.78;82.50
71996;BME280;59862;47.732;7.346;2022-09-03T11:15:05;97865.03;;;17.98;82.87
71996;BME280;59862;47.732;7.346;2022-09-03T11:17:53;97860.44;;;18.14;82.06
71996;BME280;59862;47.732;7.346;2022-09-03T11:20:24;97849.11;;;18.27;81.44
71996;BME280;59862;47.732;7.346;2022-09-03T11:23:00;97848.84;;;18.51;81.65
71996;BME280;59862;47.732;7.346;2022-09-03T11:25:27;97847.62;;;18.66;79.88
71996;BME280;59862;47.732;7.346;2022-09-03T11:30:51;97847.48;;;19.02;80.26
71996;BME280;59862;47.732;7.346;2022-09-03T11:33:18;97842.95;;;19.25;78.68
71996;BME280;59862;47.732;7.346;2022-09-03T11:35:54;97842.95;;;19.25;77.80
71996;BME280;59862;47.732;7.346;2022-09-03T11:38:20;97838.92;;;19.33;77.80
71996;BME280;59862;47.732;7.346;2022-09-03T11:41:13;97841.57;;;19.84;79.60
71996;BME280;59862;47.732;7.346;2022-09-03T11:43:42;97834.02;;;20.82;72.45
71996;BME280;59862;47.732;7.346;2022-09-03T11:48:55;97838.43;;;21.10;70.89
71996;BME280;59862;47.732;7.346;2022-09-03T11:51:38;97831.34;;;22.22;72.48
71996;BME280;59862;47.732;7.346;2022-09-03T11:56:33;97825.78;;;24.59;60.86
71996;BME280;59862;47.732;7.346;2022-09-03T11:59:24;97825.97;;;24.52;60.22
71996;BME280;59862;47.732;7.346;2022-09-03T12:01:57;97826.86;;;25.78;58.83
71996;BME280;59862;47.732;7.346;2022-09-03T12:04:33;97823.93;;;27.60;51.54
71996;BME280;59862;47.732;7.346;2022-09-03T12:12:31;97821.41;;;29.49;47.19
71996;BME280;59862;47.732;7.346;2022-09-03T12:17:52;97813.56;;;30.53;43.19
71996;BME280;59862;47.732;7.346;2022-09-03T12:20:28;97813.61;;;30.05;46.27
71996;BME280;59862;47.732;7.346;2022-09-03T12:22:55;97809.16;;;30.76;44.61
71996;BME280;59862;47.732;7.346;2022-09-03T12:25:22;97808.75;;;30.68;41.73
71996;BME280;59862;47.732;7.346;2022-09-03T12:27:50;97805.57;;;30.47;43.08
71996;BME280;59862;47.732;7.346;2022-09-03T12:30:23;97805.73;;;30.00;43.65
71996;BME280;59862;47.732;7.346;2022-09-03T12:32:51;97798.60;;;31.90;41.05
71996;BME280;59862;47.732;7.346;2022-09-03T12:35:22;97798.42;;;32.44;40.98
71996;BME280;59862;47.732;7.346;2022-09-03T12:37:52;97801.72;;;33.61;36.76
71996;BME280;59862;47.732;7.346;2022-09-03T12:40:27;97798.86;;;33.61;36.72
71996;BME280;59862;47.732;7.346;2022-09-03T12:42:52;97798.51;;;32.60;39.19
71996;BME280;59862;47.732;7.346;2022-09-03T12:45:22;97799.99;;;31.65;40.11
71996;BME280;59862;47.732;7.346;2022-09-03T12:47:51;97800.13;;;30.63;43.39
71996;BME280;59862;47.732;7.346;2022-09-03T12:50:23;97797.77;;;30.95;41.94
71996;BME280;59862;47.732;7.346;2022-09-03T12:52:57;97797.57;;;31.82;42.83
71996;BME280;59862;47.732;7.346;2022-09-03T12:55:48;97796.17;;;33.30;37.74
71996;BME280;59862;47.732;7.346;2022-09-03T12:58:19;97804.32;;;35.20;33.77
71996;BME280;59862;47.732;7.346;2022-09-03T13:03:23;97794.52;;;37.45;29.57
71996;BME280;59862;47.732;7.346;2022-09-03T13:06:06;97799.78;;;35.97;31.96
71996;BME280;59862;47.732;7.346;2022-09-03T13:08:46;97804.65;;;37.64;29.49
71996;BME280;59862;47.732;7.346;2022-09-03T13:11:16;97797.78;;;38.03;28.68
71996;BME280;59862;47.732;7.346;2022-09-03T13:13:55;97792.62;;;37.54;28.56
71996;BME280;59862;47.732;7.346;2022-09-03T13:19:43;97795.73;;;37.56;29.59
71996;BME280;59862;47.732;7.346;2022-09-03T13:25:29;97797.02;;;37.07;29.65
71996;BME280;59862;47.732;7.346;2022-09-03T13:30:45;97782.47;;;36.41;30.48
71996;BME280;59862;47.732;7.346;2022-09-03T13:33:27;97788.62;;;35.48;31.03
71996;BME280;59862;47.732;7.346;2022-09-03T13:36:02;97788.04;;;32.61;36.49
71996;BME280;59862;47.732;7.346;2022-09-03T13:38:41;97784.48;;;30.43;40.71
71996;BME280;59862;47.732;7.346;2022-09-03T13:41:10;97779.81;;;29.03;43.25
71996;BME280;59862;47.732;7.346;2022-09-03T13:46:39;97778.08;;;27.21;49.31
71996;BME280;59862;47.732;7.346;2022-09-03T13:49:16;97776.31;;;26.09;51.80
71996;BME280;59862;47.732;7.346;2022-09-03T13:52:03;97779.05;;;25.45;54.41
71996;BME280;59862;47.732;7.346;2022-09-03T13:54:47;97770.92;;;24.88;58.49
71996;BME280;59862;47.732;7.346;2022-09-03T13:57:39;97771.02;;;24.63;57.19
71996;BME280;59862;47.732;7.346;2022-09-03T14:00:11;97772.62;;;24.36;59.17
71996;BME280;59862;47.732;7.346;2022-09-03T14:03:16;97772.52;;;24.39;57.33
71996;BME280;59862;47.732;7.346;2022-09-03T14:19:57;97768.37;;;23.90;58.23
71996;BME280;59862;47.732;7.346;2022-09-03T14:22:32;97764.09;;;23.78;60.09
71996;BME280;59862;47.732;7.346;2022-09-03T14:25:02;97769.95;;;23.91;60.46
71996;BME280;59862;47.732;7.346;2022-09-03T14:27:31;97758.00;;;23.95;59.72
71996;BME280;59862;47.732;7.346;2022-09-03T14:30:05;97749.45;;;24.23;60.01
71996;BME280;59862;47.732;7.346;2022-09-03T14:35:43;97747.05;;;24.80;58.68
71996;BME280;59862;47.732;7.346;2022-09-03T14:41:21;97756.00;;;25.04;56.10
71996;BME280;59862;47.732;7.346;2022-09-03T14:46:49;97750.13;;;24.56;51.75
71996;BME280;59862;47.732;7.346;2022-09-03T14:52:47;97748.39;;;24.25;56.43
71996;BME280;59862;47.732;7.346;2022-09-03T15:06:43;97745.23;;;24.23;57.30
71996;BME280;59862;47.732;7.346;2022-09-03T15:09:25;97741.12;;;24.28;57.61
71996;BME280;59862;47.732;7.346;2022-09-03T15:17:32;97760.09;;;24.16;55.72
71996;BME280;59862;47.732;7.346;2022-09-03T15:20:22;97767.03;;;24.03;55.69
71996;BME280;59862;47.732;7.346;2022-09-03T15:28:23;97767.06;;;23.54;57.04
71996;BME280;59862;47.732;7.346;2022-09-03T15:31:16;97756.45;;;23.54;57.62
71996;BME280;59862;47.732;7.346;2022-09-03T15:34:00;97758.61;;;23.38;57.98
71996;BME280;59862;47.732;7.346;2022-09-03T15:36:45;97750.98;;;23.30;58.17
71996;BME280;59862;47.732;7.346;2022-09-03T15:39:29;97743.30;;;23.43;59.40
71996;BME280;59862;47.732;7.346;2022-09-03T15:41:58;97750.63;;;23.28;58.99
71996;BME280;59862;47.732;7.346;2022-09-03T15:44:34;97750.63;;;23.36;60.29
71996;BME280;59862;47.732;7.346;2022-09-03T15:47:06;97749.67;;;23.35;60.40
71996;BME280;59862;47.732;7.346;2022-09-03T15:49:43;97747.38;;;23.22;61.49